Terminal Aerodrome Forecast
Issued by NWS Upton, NY

Current Version | Previous Version | Text Only | Print | Product List | Glossary On
Versions: 1 2 3 4 5 6 7 8 9 10 11 12 13 14 15 16 17 18 19 20 21 22 23 24 25 26
000 FTUS41 KOKX 300547 TAFBDR TAF KBDR 300547Z 3006/3106 11007KT P6SM SCT008 OVC015 FM300800 VRB05KT P6SM OVC007 FM301300 12008KT P6SM BKN008 OVC015 FM301700 12009KT P6SM BKN015 OVC025 FM302300 13008KT 4SM -DZ BR BKN008 OVC015 FM310200 13006KT 4SM -DZ BR OVC004=

USA.gov is the U.S. government's official web portal to all federal, state and local government web resources and services.